Terminal Aerodrome Forecast
Issued by NWS Glasgow, MT

Home | Current Version | Previous Version | Text Only | Print | Product List | Glossary On
Versions: 1 2 3 4 5 6 7 8 9 10 11 12 13 14 15 16 17
000
FTUS45 KGGW 042323
TAFGGW
TAF
KGGW 042323Z 0500/0524 29007KT 6SM -DZ VCSH BKN040
     FM050300 28010KT 2SM -SN BKN030
     FM050600 30014KT P6SM VCSH BKN015
     FM050900 31018G26KT 5SM -SN OVC020
     FM051500 31016G24KT P6SM OVC015=

USA.gov is the U.S. government's official web portal to all federal, state and local government web resources and services.